Time;durP1;ratioP1;P1;durP2;ratioP2;P2;SDS_P1;SDS_P2;PMS_P1;PMS_P2;Temp;Humidity;BMP_temperature;BMP_pressure;BME280_temperature;BME280_humidity;BME280_pressure;Samples;Min_cycle;Max_cycle;Signal;HPM_P1;HPM_P2
2024/04/05 00:01:47;;;;;;;7.80;3.35;;;;;;;14.25;73.71;99316.88;4313373;33;33433;-90
2024/04/05 00:04:14;;;;;;;6.07;3.17;;;;;;;13.57;77.28;99321.97;4317303;33;33994;-90
2024/04/05 00:06:41;;;;;;;6.07;2.60;;;;;;;13.72;77.26;99330.69;4306456;33;34236;-90
2024/04/05 00:09:08;;;;;;;5.32;2.87;;;;;;;14.06;75.72;99327.28;4309456;33;33469;-90
2024/04/05 00:11:35;;;;;;;5.15;2.70;;;;;;;14.06;75.68;99332.50;4317323;33;33925;-90
2024/04/05 00:14:01;;;;;;;6.93;1.98;;;;;;;14.20;75.18;99326.41;4316973;33;33388;-90
2024/04/05 00:16:28;;;;;;;5.85;2.70;;;;;;;14.09;75.24;99322.09;4303966;33;33838;-90
2024/04/05 00:18:55;;;;;;;4.78;2.40;;;;;;;14.32;74.39;99313.41;4313073;33;33506;-91
2024/04/05 00:21:21;;;;;;;6.15;2.58;;;;;;;14.07;75.53;99307.31;4311834;33;34159;-90
2024/04/05 00:23:49;;;;;;;7.45;2.45;;;;;;;14.19;74.61;99311.66;4315174;33;33712;-90
2024/04/05 00:26:16;;;;;;;7.22;2.35;;;;;;;13.93;76.42;99315.09;4301034;33;33961;-90
2024/04/05 00:28:42;;;;;;;5.07;2.25;;;;;;;14.26;75.06;99314.25;4305831;33;33258;-90
2024/04/05 00:31:09;;;;;;;5.72;1.80;;;;;;;14.34;74.45;99306.44;4303389;33;33209;-91
2024/04/05 00:33:36;;;;;;;6.03;1.77;;;;;;;14.34;74.33;99296.00;4303306;33;33491;-89
2024/04/05 00:36:03;;;;;;;4.80;1.60;;;;;;;14.52;73.42;99280.38;4302674;33;33751;-89
2024/04/05 00:38:30;;;;;;;5.80;1.83;;;;;;;14.47;74.16;99275.97;4308910;33;33631;-88
2024/04/05 00:40:58;;;;;;;3.70;1.90;;;;;;;14.36;74.48;99278.63;4315360;33;33363;-88
2024/04/05 00:43:24;;;;;;;5.03;1.40;;;;;;;14.09;76.00;99284.69;4320031;33;33550;-90
2024/04/05 00:45:51;;;;;;;4.55;1.95;;;;;;;14.37;74.87;99282.97;4295695;33;33966;-90
2024/04/05 00:48:22;;;;;;;3.75;1.87;;;;;;;14.72;73.42;99266.41;4289933;33;33789;-88
2024/04/05 00:50:51;;;;;;;5.20;1.92;;;;;;;14.85;72.95;99268.13;4296885;33;33468;-88
2024/04/05 00:53:25;;;;;;;5.70;2.05;;;;;;;14.91;72.01;99259.41;4304973;33;33843;-90
2024/04/05 00:55:53;;;;;;;3.35;1.60;;;;;;;14.87;72.01;99260.28;4296873;33;34261;-90
2024/04/05 00:58:21;;;;;;;5.93;1.83;;;;;;;15.09;70.68;99251.50;4315000;33;34050;-90
2024/04/05 01:00:48;;;;;;;3.42;1.42;;;;;;;14.71;71.62;99238.59;4309642;33;34026;-91
2024/04/05 01:03:15;;;;;;;4.70;1.60;;;;;;;14.88;71.37;99230.69;4316264;33;33919;-90
2024/04/05 01:05:42;;;;;;;3.33;1.40;;;;;;;14.98;70.66;99230.66;4303719;33;34131;-89
2024/04/05 01:08:09;;;;;;;5.65;1.58;;;;;;;14.82;69.80;99234.22;4315715;33;33975;-90
2024/04/05 01:10:36;;;;;;;3.35;1.20;;;;;;;14.76;69.78;99227.25;4303368;33;32023;-90
2024/04/05 01:13:04;;;;;;;2.30;1.08;;;;;;;14.75;69.62;99233.34;4314897;33;34761;-89
2024/04/05 01:15:32;;;;;;;5.22;1.45;;;;;;;14.28;71.04;99254.25;4304097;33;35117;-89
2024/04/05 01:18:01;;;;;;;3.05;0.95;;;;;;;14.32;71.06;99261.25;4315431;33;34366;-91
2024/04/05 01:20:29;;;;;;;3.30;0.80;;;;;;;14.51;70.21;99252.56;4307967;33;33597;-89
2024/04/05 01:23:00;;;;;;;3.22;0.70;;;;;;;14.52;70.07;99251.69;4312560;33;33910;-89
2024/04/05 01:25:27;;;;;;;2.45;0.70;;;;;;;14.46;69.94;99256.84;4304067;33;33464;-90
2024/04/05 01:27:54;;;;;;;3.35;0.95;;;;;;;14.43;69.51;99246.41;4321566;33;34239;-90
2024/04/05 01:30:21;;;;;;;2.50;0.80;;;;;;;14.45;69.28;99262.97;4316603;33;34421;-90
2024/04/05 01:32:51;;;;;;;1.65;0.68;;;;;;;14.17;70.12;99256.00;4316581;33;33646;-89
2024/04/05 01:35:18;;;;;;;2.97;1.08;;;;;;;14.33;69.53;99266.44;4303281;33;34811;-90
2024/04/05 01:37:44;;;;;;;2.40;0.95;;;;;;;14.30;69.47;99268.19;4309227;33;33535;-89
2024/04/05 01:40:11;;;;;;;3.62;1.00;;;;;;;14.27;69.22;99262.97;4302684;33;33261;-89
2024/04/05 01:42:38;;;;;;;4.22;1.02;;;;;;;14.45;68.29;99262.97;4309497;33;34581;-89
2024/04/05 01:45:05;;;;;;;3.30;1.20;;;;;;;14.38;68.31;99266.44;4301921;33;34182;-89
2024/04/05 01:47:32;;;;;;;4.55;1.55;;;;;;;14.34;68.01;99262.97;4307364;33;33943;-89
2024/04/05 01:49:58;;;;;;;4.32;1.25;;;;;;;13.71;70.25;99263.81;4307107;33;32916;-88
2024/04/05 01:52:25;;;;;;;3.30;1.27;;;;;;;14.08;69.09;99262.97;4312769;33;34736;-89
2024/04/05 01:54:52;;;;;;;3.10;1.20;;;;;;;14.04;68.62;99257.75;4317057;33;34340;-88
2024/04/05 01:57:18;;;;;;;4.18;1.05;;;;;;;14.02;68.67;99262.97;4314265;33;34651;-89
2024/04/05 01:59:49;;;;;;;2.60;1.48;;;;;;;14.12;68.28;99259.50;4315941;33;33243;-87
2024/04/05 02:02:15;;;;;;;2.22;1.12;;;;;;;13.91;68.59;99256.91;4307652;33;34307;-90
2024/04/05 02:04:42;;;;;;;4.43;1.05;;;;;;;14.07;67.76;99250.81;4321126;33;34738;-90
2024/04/05 02:07:09;;;;;;;2.20;0.98;;;;;;;14.01;67.82;99253.41;4314912;33;34511;-90
2024/04/05 02:09:35;;;;;;;3.03;1.05;;;;;;;13.93;68.23;99268.16;4329829;33;34177;-89
2024/04/05 02:12:03;;;;;;;4.50;1.42;;;;;;;13.73;69.61;99264.69;4331084;33;34001;-90
2024/04/05 02:14:29;;;;;;;6.85;1.20;;;;;;;13.67;70.49;99267.28;4325173;33;34184;-90
2024/04/05 02:16:58;;;;;;;2.78;1.37;;;;;;;13.51;70.67;99267.25;4308991;33;34572;-90
2024/04/05 02:19:25;;;;;;;3.92;1.65;;;;;;;13.22;71.59;99274.06;4288513;33;33518;-90
2024/04/05 02:21:51;;;;;;;3.55;1.70;;;;;;;13.25;71.23;99271.50;4288484;33;33428;-90
2024/04/05 02:24:18;;;;;;;4.25;1.60;;;;;;;13.43;70.50;99274.16;4304177;33;34869;-90
2024/04/05 02:26:44;;;;;;;7.22;1.87;;;;;;;13.55;69.79;99283.75;4315859;33;33809;-89
2024/04/05 02:29:11;;;;;;;2.83;1.42;;;;;;;13.48;69.81;99284.59;4316391;33;33136;-89
2024/04/05 02:31:38;;;;;;;3.58;1.90;;;;;;;13.39;70.24;99285.44;4316226;33;33313;-89
2024/04/05 02:34:05;;;;;;;4.53;2.03;;;;;;;13.21;71.03;99287.94;4309714;33;33935;-89
2024/04/05 02:36:32;;;;;;;4.03;1.65;;;;;;;13.02;71.55;99290.47;4313389;33;34635;-89
2024/04/05 02:38:59;;;;;;;4.22;1.95;;;;;;;12.64;73.63;99292.84;4307979;33;34280;-88
2024/04/05 02:41:26;;;;;;;4.00;1.87;;;;;;;12.94;72.50;99292.16;4315490;33;34473;-87
2024/04/05 02:43:52;;;;;;;3.53;1.83;;;;;;;12.93;72.41;99295.62;4291102;33;34055;-88
2024/04/05 02:46:19;;;;;;;4.40;1.90;;;;;;;13.02;72.09;99298.25;4310288;33;32275;-88
2024/04/05 02:48:45;;;;;;;7.07;2.87;;;;;;;12.99;71.71;99303.44;4307999;33;34310;-87
2024/04/05 02:51:12;;;;;;;4.07;2.17;;;;;;;12.86;72.55;99307.72;4315858;33;34616;-87
2024/04/05 02:53:57;;;;;;;5.20;2.12;;;;;;;13.03;71.54;99297.44;4306978;33;33872;-88
2024/04/05 02:56:24;;;;;;;3.85;1.75;;;;;;;12.97;71.79;99302.59;4313077;33;33845;-89
2024/04/05 02:58:50;;;;;;;3.50;1.62;;;;;;;12.95;71.71;99312.09;4313828;33;34331;-88
2024/04/05 03:01:17;;;;;;;4.10;1.85;;;;;;;13.16;70.84;99308.75;4315417;33;34426;-89
2024/04/05 03:03:45;;;;;;;4.70;1.80;;;;;;;13.19;70.34;99300.09;4313564;33;33700;-89
2024/04/05 03:06:12;;;;;;;4.32;1.80;;;;;;;13.14;70.58;99308.75;4301561;33;34957;-89
2024/04/05 03:08:39;;;;;;;3.03;1.60;;;;;;;13.25;69.69;99314.03;4301133;33;33142;-90
2024/04/05 03:11:05;;;;;;;3.17;1.70;;;;;;;13.37;68.89;99323.63;4304307;33;33652;-88
2024/04/05 03:13:32;;;;;;;3.70;1.60;;;;;;;13.31;68.31;99321.00;4316900;33;33648;-89
2024/04/05 03:15:58;;;;;;;4.60;1.60;;;;;;;13.33;68.14;99322.75;4314552;33;34012;-89
2024/04/05 03:18:25;;;;;;;3.80;1.75;;;;;;;13.12;68.45;99322.63;4310158;33;33489;-88
2024/04/05 03:20:52;;;;;;;3.40;1.90;;;;;;;13.05;68.48;99326.03;4307870;33;33581;-90
2024/04/05 03:23:18;;;;;;;4.68;1.80;;;;;;;13.10;68.56;99329.53;4313304;33;35494;-90
2024/04/05 03:25:46;;;;;;;3.65;1.80;;;;;;;13.21;68.03;99332.19;4313205;33;34121;-90
2024/04/05 03:28:12;;;;;;;6.15;2.10;;;;;;;13.17;67.83;99330.44;4310775;33;34179;-91
2024/04/05 03:30:39;;;;;;;5.03;1.95;;;;;;;13.22;67.61;99328.72;4283408;33;33862;-90
2024/04/05 03:33:05;;;;;;;3.60;1.80;;;;;;;13.18;67.61;99338.25;4304886;33;34005;-89
2024/04/05 03:35:37;;;;;;;4.12;2.10;;;;;;;13.19;67.30;99344.34;4316481;33;34136;-90
2024/04/05 03:38:03;;;;;;;3.80;2.00;;;;;;;13.13;67.43;99356.44;4318737;33;32727;-90
2024/04/05 03:40:30;;;;;;;4.37;1.80;;;;;;;13.12;67.34;99359.94;4318785;33;33763;-90
2024/04/05 03:42:57;;;;;;;5.55;2.00;;;;;;;13.25;67.15;99355.69;4303456;33;35150;-88
2024/04/05 03:45:23;;;;;;;4.28;1.85;;;;;;;13.04;67.43;99359.00;4309603;33;34538;-89
2024/04/05 03:47:50;;;;;;;4.55;2.45;;;;;;;13.13;66.88;99355.59;4303522;33;33640;-88
2024/04/05 03:50:16;;;;;;;3.10;1.62;;;;;;;12.94;67.47;99357.22;4311193;33;34794;-89
2024/04/05 03:52:44;;;;;;;4.53;2.28;;;;;;;12.97;67.92;99359.84;4317118;33;34107;-89
2024/04/05 03:55:10;;;;;;;4.68;2.50;;;;;;;12.91;68.12;99365.00;4315528;33;33927;-89
2024/04/05 03:57:37;;;;;;;3.75;2.53;;;;;;;12.90;69.06;99368.47;4307517;33;32915;-89
2024/04/05 04:00:06;;;;;;;4.12;2.45;;;;;;;12.94;68.66;99359.81;4294921;33;33748;-88
2024/04/05 04:02:37;;;;;;;6.20;2.53;;;;;;;12.97;68.42;99371.97;4302642;33;34097;-89
2024/04/05 04:05:04;;;;;;;4.90;2.55;;;;;;;13.07;67.75;99368.59;4309289;33;33982;-87
2024/04/05 04:07:31;;;;;;;5.87;2.72;;;;;;;13.02;67.67;99368.53;4316412;33;33048;-88
2024/04/05 04:09:57;;;;;;;4.40;2.47;;;;;;;12.95;67.72;99360.69;4331551;33;34647;-87
2024/04/05 04:12:24;;;;;;;5.18;2.83;;;;;;;12.97;67.67;99361.56;4330613;33;34112;-87
2024/04/05 04:14:52;;;;;;;5.78;3.08;;;;;;;12.92;68.11;99356.34;4302783;33;33727;-89
2024/04/05 04:17:19;;;;;;;5.30;3.65;;;;;;;12.88;68.41;99359.78;4316820;33;33215;-89
2024/04/05 04:19:46;;;;;;;6.30;3.60;;;;;;;12.96;68.23;99367.66;4317275;33;34009;-89
2024/04/05 04:22:13;;;;;;;5.32;3.42;;;;;;;12.93;68.56;99378.91;4317030;33;34078;-89
2024/04/05 04:24:40;;;;;;;6.43;3.78;;;;;;;12.94;68.75;99375.44;4306560;33;34143;-89
2024/04/05 04:27:08;;;;;;;6.12;3.58;;;;;;;12.88;69.25;99376.28;4316825;33;33493;-89
2024/04/05 04:29:34;;;;;;;7.97;4.32;;;;;;;12.89;69.37;99378.00;4316856;33;34808;-89
2024/04/05 04:32:01;;;;;;;6.28;4.32;;;;;;;13.00;68.92;99370.28;4314563;33;34246;-89
2024/04/05 04:34:28;;;;;;;5.68;3.72;;;;;;;13.02;68.89;99376.34;4316613;33;33848;-88
2024/04/05 04:36:54;;;;;;;5.45;3.90;;;;;;;13.13;68.42;99382.47;4316428;33;34163;-88
2024/04/05 04:39:20;;;;;;;6.97;3.60;;;;;;;13.05;68.04;99375.50;4317027;33;33588;-88
2024/04/05 04:41:47;;;;;;;6.35;4.20;;;;;;;13.12;67.55;99375.53;4315855;33;34237;-87
2024/04/05 04:44:14;;;;;;;5.37;3.53;;;;;;;13.24;66.96;99381.72;4303286;33;33819;-88
2024/04/05 04:46:40;;;;;;;6.43;3.85;;;;;;;13.19;66.76;99380.81;4316358;33;33709;-87
2024/04/05 04:49:08;;;;;;;4.90;3.10;;;;;;;13.26;66.73;99387.78;4303236;33;33729;-88
2024/04/05 04:51:34;;;;;;;5.68;3.20;;;;;;;13.58;66.01;99391.44;4315327;33;34882;-88
2024/04/05 04:54:02;;;;;;;4.57;2.80;;;;;;;13.54;65.75;99386.22;4316633;33;34514;-88
2024/04/05 04:56:30;;;;;;;5.93;2.75;;;;;;;13.85;65.18;99384.56;4315880;33;34241;-88
2024/04/05 04:58:57;;;;;;;5.28;2.62;;;;;;;14.12;65.44;99378.56;4309121;33;34751;-87
2024/04/05 05:01:24;;;;;;;6.30;2.60;;;;;;;14.62;64.98;99390.78;4310497;33;34148;-88
2024/04/05 05:03:52;;;;;;;5.97;2.47;;;;;;;15.11;63.74;99384.66;4294738;33;33763;-88
2024/04/05 05:06:18;;;;;;;5.68;2.05;;;;;;;15.49;61.04;99372.38;4316160;33;34165;-89
2024/04/05 05:08:45;;;;;;;3.65;2.00;;;;;;;15.80;59.88;99386.22;4317216;33;33372;-88
2024/04/05 05:11:12;;;;;;;5.85;1.98;;;;;;;16.10;59.57;99391.25;4316217;33;34015;-89
2024/04/05 05:13:38;;;;;;;5.50;2.10;;;;;;;16.33;59.68;99393.72;4310679;33;33493;-88
2024/04/05 05:16:05;;;;;;;7.22;2.53;;;;;;;16.23;59.82;99401.66;4300324;33;33579;-89
2024/04/05 05:18:32;;;;;;;6.87;2.40;;;;;;;16.07;60.71;99402.62;4306824;33;34595;-89
2024/04/05 05:20:58;;;;;;;7.80;2.95;;;;;;;15.94;61.44;99412.25;4316384;33;33358;-89
2024/04/05 05:23:25;;;;;;;5.00;2.90;;;;;;;16.00;61.47;99420.09;4315881;33;34592;-89
2024/04/05 05:25:52;;;;;;;7.95;3.75;;;;;;;16.16;61.31;99412.16;4316177;33;34531;-88
2024/04/05 05:28:18;;;;;;;6.68;3.08;;;;;;;15.81;62.94;99418.44;4313041;33;33395;-88
2024/04/05 05:30:45;;;;;;;7.07;3.53;;;;;;;15.75;62.90;99415.84;4310990;33;33685;-88
2024/04/05 05:33:11;;;;;;;5.62;2.90;;;;;;;15.62;63.85;99424.59;4310040;33;33976;-88
2024/04/05 05:35:38;;;;;;;5.37;2.85;;;;;;;15.91;62.78;99425.38;4319539;33;34340;-89
2024/04/05 05:38:04;;;;;;;6.00;2.97;;;;;;;15.92;63.21;99428.87;4304014;33;33866;-88
2024/04/05 05:40:31;;;;;;;6.72;2.67;;;;;;;15.65;64.68;99425.50;4302862;33;34268;-89
2024/04/05 05:42:58;;;;;;;5.47;2.75;;;;;;;15.77;64.32;99435.88;4316192;33;33580;-88
2024/04/05 05:45:24;;;;;;;5.57;2.85;;;;;;;16.12;63.67;99442.69;4321678;33;33477;-89
2024/04/05 05:47:55;;;;;;;6.22;2.90;;;;;;;16.12;63.74;99440.06;4310942;33;34756;-88
2024/04/05 05:50:22;;;;;;;6.25;2.72;;;;;;;16.03;64.40;99443.63;4316089;33;33968;-89
2024/04/05 05:52:49;;;;;;;4.45;2.80;;;;;;;16.16;64.57;99448.78;4309118;33;33817;-89
2024/04/05 05:55:16;;;;;;;5.75;3.17;;;;;;;15.77;66.35;99451.56;4303014;33;33331;-89
2024/04/05 05:57:44;;;;;;;7.97;3.33;;;;;;;16.04;65.67;99455.81;4298129;33;34773;-89
2024/04/05 06:00:11;;;;;;;7.05;3.58;;;;;;;15.96;66.30;99444.53;4298456;33;34148;-88
2024/04/05 06:02:38;;;;;;;5.57;3.17;;;;;;;15.69;67.99;99460.31;4285181;33;34574;-88
2024/04/05 06:05:06;;;;;;;6.75;3.87;;;;;;;15.85;67.25;99448.94;4295899;33;33827;-87
2024/04/05 06:07:32;;;;;;;7.53;3.75;;;;;;;15.77;68.12;99451.56;4289220;33;34322;-89
2024/04/05 06:09:59;;;;;;;6.90;3.65;;;;;;;15.90;68.43;99452.37;4297752;33;34311;-88
2024/04/05 06:12:26;;;;;;;10.73;4.35;;;;;;;15.52;70.04;99457.72;4319219;33;33807;-89
2024/04/05 06:14:54;;;;;;;7.32;4.00;;;;;;;15.68;70.16;99456.84;4295008;33;33247;-89
2024/04/05 06:17:27;;;;;;;9.30;4.62;;;;;;;15.85;70.36;99462.00;4294187;33;33826;-88
2024/04/05 06:19:57;;;;;;;7.03;4.53;;;;;;;15.77;71.69;99469.00;4303397;33;34492;-88
2024/04/05 06:22:26;;;;;;;5.87;4.25;;;;;;;15.86;71.64;99465.47;4302405;33;33612;-88
2024/04/05 06:24:53;;;;;;;6.45;4.20;;;;;;;15.86;71.04;99468.97;4308092;33;33328;-90
2024/04/05 06:27:20;;;;;;;6.80;4.37;;;;;;;15.97;70.26;99468.91;4315706;33;34904;-88
2024/04/05 06:29:52;;;;;;;5.07;3.28;;;;;;;15.94;71.87;99466.31;4289699;33;34129;-88
2024/04/05 06:32:19;;;;;;;7.57;4.35;;;;;;;16.05;70.99;99475.84;4305331;33;33941;-87
2024/04/05 06:34:46;;;;;;;7.87;4.28;;;;;;;15.69;73.54;99478.62;4307983;33;32458;-89
2024/04/05 06:37:13;;;;;;;9.07;3.80;;;;;;;16.25;71.31;99475.78;4299836;33;34701;-88
2024/04/05 06:39:40;;;;;;;7.72;3.60;;;;;;;15.74;72.03;99480.34;4314697;33;34279;-87
2024/04/05 06:42:10;;;;;;;6.93;3.47;;;;;;;15.89;70.60;99476.81;4316004;33;34083;-90
2024/04/05 06:44:40;;;;;;;6.78;3.25;;;;;;;15.75;71.96;99481.19;4302912;33;34412;-88
2024/04/05 06:47:08;;;;;;;5.32;3.33;;;;;;;15.64;72.03;99480.31;4301274;33;34046;-86
2024/04/05 06:49:38;;;;;;;6.22;3.40;;;;;;;16.01;70.36;99486.34;4314158;33;34007;-87
2024/04/05 06:52:06;;;;;;;5.85;3.37;;;;;;;15.87;71.45;99486.38;4315728;33;33960;-89
2024/04/05 06:54:33;;;;;;;4.93;2.85;;;;;;;15.77;73.82;99492.53;4305155;33;33387;-86
2024/04/05 06:57:00;;;;;;;7.18;3.30;;;;;;;15.91;71.46;99485.53;4301085;33;32373;-87
2024/04/05 06:59:28;;;;;;;6.22;3.72;;;;;;;15.87;71.09;99490.75;4305234;33;33471;-87
2024/04/05 07:01:55;;;;;;;6.70;4.20;;;;;;;15.73;70.97;99481.22;4314306;33;34565;-86
2024/04/05 07:04:25;;;;;;;7.93;4.30;;;;;;;16.06;70.45;99489.78;4315834;33;34207;-88
2024/04/05 07:06:54;;;;;;;4.70;2.08;;;;;;;16.09;71.61;99488.91;4315749;33;34078;-89
2024/04/05 07:09:22;;;;;;;5.10;2.10;;;;;;;15.93;67.57;99488.97;4302006;33;33868;-88
2024/04/05 07:11:50;;;;;;;5.43;2.50;;;;;;;15.88;66.75;99480.28;4315758;33;33877;-89
2024/04/05 07:14:17;;;;;;;4.07;2.05;;;;;;;16.09;67.31;99488.91;4315688;33;33411;-88
2024/04/05 07:16:47;;;;;;;4.90;2.20;;;;;;;16.41;65.57;99497.50;4315807;33;34737;-90
2024/04/05 07:19:17;;;;;;;5.68;2.35;;;;;;;16.38;66.63;99491.41;4307051;33;34124;-87
2024/04/05 07:21:47;;;;;;;6.03;2.03;;;;;;;16.44;66.76;99505.31;4301313;33;34042;-88
2024/04/05 07:24:15;;;;;;;5.18;1.50;;;;;;;16.03;67.25;99495.94;4287803;33;33482;-88
2024/04/05 07:26:44;;;;;;;3.95;1.52;;;;;;;16.28;66.06;99501.03;4301069;33;34018;-88
2024/04/05 07:29:11;;;;;;;4.18;1.55;;;;;;;16.13;62.45;99501.97;4308796;33;34932;-88
2024/04/05 07:31:38;;;;;;;3.75;1.83;;;;;;;16.46;62.60;99500.06;4304658;33;33586;-88
2024/04/05 07:34:05;;;;;;;4.62;1.98;;;;;;;16.87;61.26;99502.44;4300960;33;33551;-88
2024/04/05 07:36:33;;;;;;;5.53;1.70;;;;;;;16.93;59.58;99502.41;4301047;33;33828;-89
2024/04/05 07:39:00;;;;;;;4.28;1.33;;;;;;;16.68;60.96;99500.81;4314497;33;33756;-90
2024/04/05 07:41:26;;;;;;;3.92;1.30;;;;;;;17.17;59.53;99505.72;4315626;33;33539;-87
2024/04/05 07:43:53;;;;;;;3.20;1.60;;;;;;;17.50;57.82;99494.03;4290028;33;34281;-87
2024/04/05 07:46:23;;;;;;;5.85;1.85;;;;;;;17.33;58.36;99502.06;4315407;33;34214;-88
2024/04/05 07:48:49;;;;;;;3.47;1.52;;;;;;;17.64;58.97;99507.00;4289556;33;34162;-88
2024/04/05 07:51:16;;;;;;;3.58;1.20;;;;;;;17.55;56.60;99505.34;4300910;33;34076;-87
2024/04/05 07:53:44;;;;;;;4.75;1.50;;;;;;;17.14;57.47;99516.22;4311611;33;33842;-87
2024/04/05 07:56:12;;;;;;;5.15;1.10;;;;;;;17.24;59.04;99512.66;4314558;33;32867;-88
2024/04/05 07:58:39;;;;;;;2.75;0.98;;;;;;;17.41;58.22;99508.09;4314948;33;34170;-86
2024/04/05 08:01:07;;;;;;;4.20;1.00;;;;;;;18.09;57.14;99504.78;4315128;33;34087;-86
2024/04/05 08:03:35;;;;;;;3.67;1.08;;;;;;;18.43;53.88;99506.06;4301760;33;33372;-87
2024/04/05 08:06:01;;;;;;;5.35;1.42;;;;;;;18.41;54.83;99499.09;4314560;33;33706;-86
2024/04/05 08:08:28;;;;;;;3.97;1.30;;;;;;;18.68;53.83;99497.87;4316068;33;34621;-86
2024/04/05 08:11:01;;;;;;;7.80;1.40;;;;;;;18.57;52.62;99508.53;4302434;33;33850;-86
2024/04/05 08:13:28;;;;;;;4.53;1.33;;;;;;;18.51;55.11;99502.47;4310334;33;33418;-86
2024/04/05 08:15:55;;;;;;;4.15;1.33;;;;;;;18.36;54.56;99508.81;4313424;33;34057;-87
2024/04/05 08:18:22;;;;;;;4.10;1.35;;;;;;;18.46;54.16;99516.53;4302452;33;34200;-86
2024/04/05 08:20:49;;;;;;;4.00;1.83;;;;;;;18.52;53.50;99512.09;4311184;33;33673;-86
2024/04/05 08:23:16;;;;;;;4.72;1.45;;;;;;;18.74;53.29;99510.91;4314178;33;32943;-85
2024/04/05 08:25:42;;;;;;;5.40;1.20;;;;;;;17.96;55.29;99515.44;4308820;33;33838;-86
2024/04/05 08:28:09;;;;;;;3.62;1.12;;;;;;;18.65;52.62;99519.78;4301000;33;33768;-86
2024/04/05 08:30:36;;;;;;;5.50;1.20;;;;;;;18.09;54.00;99515.28;4314647;33;33720;-86
2024/04/05 08:33:04;;;;;;;4.43;1.00;;;;;;;18.56;53.39;99519.91;4287558;33;32734;-86
2024/04/05 08:35:30;;;;;;;5.20;1.20;;;;;;;18.89;53.95;99515.94;4302627;33;34906;-86
2024/04/05 08:38:05;;;;;;;4.90;1.10;;;;;;;18.67;53.53;99511.88;4311422;33;34364;-86
2024/04/05 08:40:32;;;;;;;5.03;1.00;;;;;;;18.98;53.90;99511.44;4316837;33;33468;-85
2024/04/05 08:43:00;;;;;;;4.75;1.45;;;;;;;19.28;51.50;99512.69;4303965;33;34326;-85
2024/04/05 08:45:32;;;;;;;4.57;1.33;;;;;;;18.87;51.82;99517.75;4326711;33;34007;-87
2024/04/05 08:48:03;;;;;;;4.15;0.95;;;;;;;18.72;52.59;99502.22;4328897;33;34683;-85
2024/04/05 08:50:30;;;;;;;5.37;1.20;;;;;;;18.63;53.20;99512.81;4331162;33;33744;-86
2024/04/05 08:52:57;;;;;;;3.72;1.05;;;;;;;19.28;51.55;99516.22;4318039;33;34270;-86
2024/04/05 08:55:25;;;;;;;5.57;1.15;;;;;;;18.95;51.06;99509.75;4305245;33;34099;-90
2024/04/05 08:57:52;;;;;;;4.12;1.15;;;;;;;18.66;50.94;99512.75;4292847;33;33873;-86
2024/04/05 09:00:23;;;;;;;3.42;1.12;;;;;;;18.98;51.10;99514.06;4297638;33;33223;-87
2024/04/05 09:02:56;;;;;;;4.97;1.20;;;;;;;18.91;51.81;99514.16;4295869;33;34399;-86
2024/04/05 09:05:25;;;;;;;3.75;0.93;;;;;;;19.05;50.78;99524.44;4306231;33;33876;-87
2024/04/05 09:08:08;;;;;;;4.32;1.12;;;;;;;19.44;49.09;99519.44;4316587;33;34201;-88
2024/04/05 09:10:35;;;;;;;5.15;1.40;;;;;;;19.42;49.50;99518.56;4316744;33;33938;-87
2024/04/05 09:13:04;;;;;;;4.07;1.30;;;;;;;19.63;50.39;99512.13;4308711;33;34444;-86
2024/04/05 09:15:31;;;;;;;4.03;1.48;;;;;;;19.74;49.12;99509.28;4303847;33;33506;-86
2024/04/05 09:17:58;;;;;;;5.07;1.20;;;;;;;19.30;48.51;99511.78;4320438;33;35080;-86
2024/04/05 09:20:29;;;;;;;5.53;1.17;;;;;;;19.84;48.43;99514.31;4312941;33;34140;-87
2024/04/05 09:23:05;;;;;;;3.60;1.27;;;;;;;19.92;49.21;99511.53;4325018;33;34216;-87
2024/04/05 09:25:38;;;;;;;5.97;1.20;;;;;;;20.17;49.74;99515.41;4315966;33;34732;-87
2024/04/05 09:28:10;;;;;;;2.70;0.90;;;;;;;19.87;48.44;99519.53;4318610;33;34387;-88
2024/04/05 09:30:39;;;;;;;4.32;1.23;;;;;;;19.81;47.25;99527.56;4311397;33;34706;-86
2024/04/05 09:33:06;;;;;;;4.32;1.23;;;;;;;20.22;48.78;99525.84;4327102;33;33341;-87
2024/04/05 09:35:38;;;;;;;5.53;1.00;;;;;;;20.02;47.03;99526.25;4318314;33;34799;-86
2024/04/05 09:38:05;;;;;;;3.17;1.00;;;;;;;20.54;47.37;99526.97;4317327;33;34188;-87
2024/04/05 09:40:33;;;;;;;4.30;1.23;;;;;;;20.61;46.78;99525.94;4330630;33;34783;-86
2024/04/05 09:43:01;;;;;;;3.58;1.10;;;;;;;20.56;45.94;99519.88;4317435;33;32096;-87
2024/04/05 09:45:30;;;;;;;3.97;0.98;;;;;;;20.83;47.05;99524.53;4330704;33;33976;-86
2024/04/05 09:47:57;;;;;;;4.57;1.35;;;;;;;20.50;45.91;99520.03;4300455;33;33805;-87
2024/04/05 09:50:25;;;;;;;3.40;1.12;;;;;;;20.13;46.96;99520.78;4323286;33;34135;-86
2024/04/05 09:52:53;;;;;;;5.45;1.23;;;;;;;20.53;45.61;99514.69;4306677;33;33299;-87
2024/04/05 09:55:23;;;;;;;3.83;0.85;;;;;;;19.86;47.63;99517.81;4304566;33;33864;-87
2024/04/05 09:57:50;;;;;;;4.15;1.08;;;;;;;20.46;48.15;99520.97;4311642;33;34070;-87
2024/04/05 10:00:21;;;;;;;5.72;1.48;;;;;;;19.93;47.79;99523.81;4322516;33;33961;-86
2024/04/05 10:02:50;;;;;;;3.90;1.00;;;;;;;20.20;46.38;99511.88;4311750;33;33377;-87
2024/04/05 10:05:27;;;;;;;4.68;1.00;;;;;;;20.17;46.96;99506.66;4312665;33;34781;-86
2024/04/05 10:07:54;;;;;;;4.53;0.90;;;;;;;20.08;46.66;99499.81;4330133;33;34044;-88
2024/04/05 10:10:33;;;;;;;5.43;0.90;;;;;;;20.19;47.58;99502.22;4330656;33;34692;-86
2024/04/05 10:13:32;;;;;;;3.97;1.00;;;;;;;20.32;46.26;99502.84;4303902;33;34066;-86
2024/04/05 10:15:59;;;;;;;3.37;0.90;;;;;;;20.57;46.56;99508.44;4292637;33;33882;-86
2024/04/05 10:18:32;;;;;;;6.22;0.90;;;;;;;20.79;43.22;99511.47;4301585;33;35314;-86
2024/04/05 10:21:12;;;;;;;4.12;0.75;;;;;;;20.61;43.33;99508.38;4303886;33;33750;-86
2024/04/05 10:23:40;;;;;;;2.83;0.60;;;;;;;20.61;45.30;99515.41;4301258;33;33310;-85
2024/04/05 10:26:13;;;;;;;4.70;1.12;;;;;;;20.87;41.87;99507.75;4303376;33;34948;-86
2024/04/05 10:28:40;;;;;;;4.47;1.15;;;;;;;21.12;41.70;99502.75;4316273;33;34187;-87
2024/04/05 10:31:07;;;;;;;5.62;1.00;;;;;;;21.31;41.97;99502.28;4289716;33;33498;-86
2024/04/05 10:33:33;;;;;;;3.47;0.88;;;;;;;21.16;41.01;99490.34;4306297;33;33254;-89
2024/04/05 10:36:00;;;;;;;3.62;0.80;;;;;;;20.60;42.16;99497.84;4299549;33;33809;-87
2024/04/05 10:38:27;;;;;;;2.83;0.85;;;;;;;21.22;41.05;99495.47;4294226;33;34284;-89
2024/04/05 10:41:00;;;;;;;2.87;0.75;;;;;;;21.55;42.57;99493.75;4287150;33;33588;-89
2024/04/05 10:43:28;;;;;;;3.25;0.93;;;;;;;21.72;42.58;99493.31;4286968;33;34029;-91
2024/04/05 10:45:56;;;;;;;4.30;0.90;;;;;;;21.34;41.54;99482.00;4287240;33;34722;-90
2024/04/05 10:48:23;;;;;;;3.92;1.00;;;;;;;21.42;41.30;99486.22;4280654;33;33084;-90
2024/04/05 10:50:53;;;;;;;4.97;0.80;;;;;;;20.81;41.06;99488.59;4301439;33;34002;-88
2024/04/05 10:53:20;;;;;;;5.80;1.02;;;;;;;21.52;40.34;99487.72;4273442;33;33920;-90
2024/04/05 10:55:52;;;;;;;4.80;0.82;;;;;;;21.54;39.36;99488.53;4287606;33;34017;-88
2024/04/05 10:58:19;;;;;;;4.78;1.20;;;;;;;21.60;40.57;99488.38;4300709;33;34025;-86
2024/04/05 11:00:46;;;;;;;4.25;1.10;;;;;;;21.27;41.44;99487.44;4299004;33;33704;-87
2024/04/05 11:03:20;;;;;;;4.65;0.90;;;;;;;21.96;39.27;99475.91;4301248;33;33621;-88
2024/04/05 11:05:47;;;;;;;6.70;1.20;;;;;;;21.40;40.48;99488.00;4300903;33;33589;-87
2024/04/05 11:08:14;;;;;;;2.92;0.65;;;;;;;21.32;39.14;99481.13;4287621;33;34964;-87
2024/04/05 11:10:41;;;;;;;4.30;1.00;;;;;;;21.27;40.23;99483.03;4288633;33;33832;-87
2024/04/05 11:13:15;;;;;;;3.80;1.00;;;;;;;21.38;41.02;99480.16;4286486;33;34250;-88
2024/04/05 11:15:43;;;;;;;4.03;1.05;;;;;;;21.67;38.97;99479.38;4286981;33;34054;-86
2024/04/05 11:18:11;;;;;;;5.68;1.10;;;;;;;22.11;38.59;99487.81;4300911;33;34017;-87
2024/04/05 11:20:42;;;;;;;2.20;0.70;;;;;;;22.27;37.71;99481.19;4300976;33;34367;-89
2024/04/05 11:23:21;;;;;;;4.78;0.98;;;;;;;21.85;37.45;99472.72;4300926;33;33335;-88
2024/04/05 11:25:52;;;;;;;4.18;1.10;;;;;;;21.74;38.48;99483.56;4311831;33;34874;-87
2024/04/05 11:28:22;;;;;;;6.43;1.20;;;;;;;22.15;39.02;99478.91;4314903;33;34190;-87
2024/04/05 11:30:51;;;;;;;6.60;1.37;;;;;;;22.23;38.06;99470.75;4315301;33;34840;-87
2024/04/05 11:33:18;;;;;;;7.22;1.05;;;;;;;22.17;38.93;99478.88;4310466;33;33552;-88
2024/04/05 11:35:48;;;;;;;5.62;0.88;;;;;;;21.69;40.17;99477.56;4301223;33;34642;-87
2024/04/05 11:38:16;;;;;;;3.80;1.10;;;;;;;21.99;40.03;99477.59;4300607;33;33861;-87